Palisade, CO (81526)

12:37 AM MDT on August 20, 2014 (GMT -0600)
Rapid Creek Road | Change Station
CLOSE
Current Station
Personal Weather Station
Location: Palisade, CO
Elevation: 4980 ft
Nearby Weather Stations

Elev 4980 ft 39.13 °N, 108.32 °W | Updated 2 minutes ago

Overcast
Overcast
62.5 °F
Feels Like 62.5 °F
N
0.0
Wind Variable Wind from SSW
Gusts 0.0 mph

Today
High -- | Low -- °F
--% Chance of Precip.
Yesterday
High -- | Low -- °F
Precip. -- in
6:31 AM 8:01 PM
Waning Crescent, 24% visible
Pressure 29.82 in
Visibility 10.0 miles
Clouds Scattered Clouds 6000 ft
Scattered Clouds 8500 ft
Overcast 11000 ft
Dew Point 60 °F
Humidity 92%
Rainfall 0.00 in
Snow Depth Not available.
UV 0 out of 12
Pollen 7.40 out of 12
Air Quality Not available.
Flu Activity Not available.
METAR KGJT 200553Z AUTO 05004KT 10SM SCT060 SCT085 OVC110 17/16 A2998 RMK AO2 SLP098 60023 T01670156 10233 20161 53000

More Conditions Fewer Conditions

Pressure 29.82 in
Visibility 10.0 miles
Clouds Scattered Clouds 6000 ft
Scattered Clouds 8500 ft
Overcast 11000 ft
Dew Point 60 °F
Humidity 92%
Rainfall 0.00 in
Snow Depth Not available.
UV 0 out of 12
Pollen 7.40 out of 12
Air Quality Not available.
Flu Activity Not available.
METAR KGJT 200553Z AUTO 05004KT 10SM SCT060 SCT085 OVC110 17/16 A2998 RMK AO2 SLP098 60023 T01670156 10233 20161 53000

More Conditions Fewer Conditions

10-Day Weather Forecast

Almanac

Astronomy

Aug. 20, 2014 Rise Set
Actual Time 6:31 AM MDT 8:01 PM MDT
Civil Twilight 6:03 AM MDT 8:29 PM MDT
Nautical Twilight 5:29 AM MDT 9:03 PM MDT
Astronomical Twilight 4:53 AM MDT 9:39 PM MDT
Moon 2:14 AM MDT 4:48 PM MDT
Length of Visible Light 14h 26m
Length of Day
13h 30m
Tomorrow will be 2m 19s shorter.
Waning Crescent, 24% of the Moon is Illuminated
Today
Waning Crescent
Aug 25
New
Sep 2
First Quarter
Sep 8
Full
Sep 15
Last Quarter

Community

WunderPhotos

Upload Photos

1,745,592 photos uploaded!

Nearby

Snow Depth

Station Depth Elevation
Mesa Lakes 0 in 10000 ft
Park Reservoir 0 in 9960 ft
Overland Reservoir 0 in 9880 ft
Columbine Pass 0 in 9400 ft
McClure Pass 0 in 9500 ft

Earthquake Activity

City Distance Mag. Time & Date
No recent earthquake activity has been reported nearby.
Minimum magnitude displayed is 2.5.

Coastal Water Temperatures

Place Temperature
No Stations Reporting

Nearby Weather Stations